sensor_id;sensor_type;location;lat;lon;timestamp;P1;durP1;ratioP1;P2;durP2;ratioP2
63801;SDS011;49949;43.060;25.624;2022-08-27T00:00:03;19.55;;;4.82;;
63801;SDS011;49949;43.060;25.624;2022-08-27T00:02:32;15.02;;;4.22;;
63801;SDS011;49949;43.060;25.624;2022-08-27T00:05:00;12.60;;;5.15;;
63801;SDS011;49949;43.060;25.624;2022-08-27T00:07:27;18.10;;;4.57;;
63801;SDS011;49949;43.060;25.624;2022-08-27T00:09:53;22.42;;;5.93;;
63801;SDS011;49949;43.060;25.624;2022-08-27T00:12:19;16.63;;;4.75;;
63801;SDS011;49949;43.060;25.624;2022-08-27T00:14:44;20.92;;;5.07;;
63801;SDS011;49949;43.060;25.624;2022-08-27T00:17:10;15.27;;;5.40;;
63801;SDS011;49949;43.060;25.624;2022-08-27T00:19:37;18.50;;;5.18;;
63801;SDS011;49949;43.060;25.624;2022-08-27T00:22:04;12.95;;;5.00;;
63801;SDS011;49949;43.060;25.624;2022-08-27T00:24:30;17.90;;;4.60;;
63801;SDS011;49949;43.060;25.624;2022-08-27T00:26:56;18.73;;;5.15;;
63801;SDS011;49949;43.060;25.624;2022-08-27T00:29:22;13.23;;;5.50;;
63801;SDS011;49949;43.060;25.624;2022-08-27T00:31:47;11.52;;;4.78;;
63801;SDS011;49949;43.060;25.624;2022-08-27T00:34:13;17.58;;;5.18;;
63801;SDS011;49949;43.060;25.624;2022-08-27T00:36:39;44.63;;;20.95;;
63801;SDS011;49949;43.060;25.624;2022-08-27T00:39:05;18.08;;;5.88;;
63801;SDS011;49949;43.060;25.624;2022-08-27T00:41:31;15.00;;;5.35;;
63801;SDS011;49949;43.060;25.624;2022-08-27T00:43:58;12.82;;;5.85;;
63801;SDS011;49949;43.060;25.624;2022-08-27T00:49:02;19.85;;;5.03;;
63801;SDS011;49949;43.060;25.624;2022-08-27T00:51:33;19.73;;;5.60;;
63801;SDS011;49949;43.060;25.624;2022-08-27T00:54:01;13.85;;;4.95;;
63801;SDS011;49949;43.060;25.624;2022-08-27T00:56:28;20.90;;;4.82;;
63801;SDS011;49949;43.060;25.624;2022-08-27T00:59:00;11.82;;;4.95;;
63801;SDS011;49949;43.060;25.624;2022-08-27T01:01:29;13.95;;;5.00;;
63801;SDS011;49949;43.060;25.624;2022-08-27T01:03:58;16.98;;;5.45;;
63801;SDS011;49949;43.060;25.624;2022-08-27T01:06:28;12.18;;;4.63;;
63801;SDS011;49949;43.060;25.624;2022-08-27T01:08:59;14.40;;;5.30;;
63801;SDS011;49949;43.060;25.624;2022-08-27T01:11:31;14.50;;;4.85;;
63801;SDS011;49949;43.060;25.624;2022-08-27T01:13:58;9.73;;;5.32;;
63801;SDS011;49949;43.060;25.624;2022-08-27T01:16:24;23.17;;;5.22;;
63801;SDS011;49949;43.060;25.624;2022-08-27T01:18:52;16.50;;;4.93;;
63801;SDS011;49949;43.060;25.624;2022-08-27T01:21:41;16.90;;;5.00;;
63801;SDS011;49949;43.060;25.624;2022-08-27T01:24:33;15.98;;;5.22;;
63801;SDS011;49949;43.060;25.624;2022-08-27T01:27:05;11.20;;;4.35;;
63801;SDS011;49949;43.060;25.624;2022-08-27T01:29:34;16.48;;;4.82;;
63801;SDS011;49949;43.060;25.624;2022-08-27T01:32:08;13.55;;;4.97;;
63801;SDS011;49949;43.060;25.624;2022-08-27T01:34:40;16.52;;;5.10;;
63801;SDS011;49949;43.060;25.624;2022-08-27T01:37:06;12.65;;;4.40;;
63801;SDS011;49949;43.060;25.624;2022-08-27T01:39:33;20.45;;;4.32;;
63801;SDS011;49949;43.060;25.624;2022-08-27T01:42:03;10.95;;;4.05;;
63801;SDS011;49949;43.060;25.624;2022-08-27T01:44:42;11.13;;;4.63;;
63801;SDS011;49949;43.060;25.624;2022-08-27T01:47:09;9.93;;;5.22;;
63801;SDS011;49949;43.060;25.624;2022-08-27T01:49:35;14.55;;;4.97;;
63801;SDS011;49949;43.060;25.624;2022-08-27T01:52:01;12.32;;;4.75;;
63801;SDS011;49949;43.060;25.624;2022-08-27T01:54:28;10.27;;;4.65;;
63801;SDS011;49949;43.060;25.624;2022-08-27T01:56:55;16.60;;;4.65;;
63801;SDS011;49949;43.060;25.624;2022-08-27T01:59:21;11.40;;;5.07;;
63801;SDS011;49949;43.060;25.624;2022-08-27T02:01:47;13.80;;;5.45;;
63801;SDS011;49949;43.060;25.624;2022-08-27T02:04:12;24.48;;;4.63;;
63801;SDS011;49949;43.060;25.624;2022-08-27T02:06:38;14.85;;;4.32;;
63801;SDS011;49949;43.060;25.624;2022-08-27T02:09:04;14.40;;;4.53;;
63801;SDS011;49949;43.060;25.624;2022-08-27T02:11:30;12.35;;;5.00;;
63801;SDS011;49949;43.060;25.624;2022-08-27T02:13:55;17.67;;;4.80;;
63801;SDS011;49949;43.060;25.624;2022-08-27T02:16:21;15.10;;;4.63;;
63801;SDS011;49949;43.060;25.624;2022-08-27T02:18:47;19.45;;;5.10;;
63801;SDS011;49949;43.060;25.624;2022-08-27T02:21:13;19.35;;;5.70;;
63801;SDS011;49949;43.060;25.624;2022-08-27T02:23:39;13.52;;;4.70;;
63801;SDS011;49949;43.060;25.624;2022-08-27T02:26:06;21.75;;;5.10;;
63801;SDS011;49949;43.060;25.624;2022-08-27T02:28:33;13.68;;;5.82;;
63801;SDS011;49949;43.060;25.624;2022-08-27T02:30:59;16.45;;;5.78;;
63801;SDS011;49949;43.060;25.624;2022-08-27T02:33:25;18.90;;;6.43;;
63801;SDS011;49949;43.060;25.624;2022-08-27T02:35:51;18.23;;;5.88;;
63801;SDS011;49949;43.060;25.624;2022-08-27T02:38:16;20.20;;;6.55;;
63801;SDS011;49949;43.060;25.624;2022-08-27T02:40:44;15.18;;;6.43;;
63801;SDS011;49949;43.060;25.624;2022-08-27T02:43:10;23.42;;;6.38;;
63801;SDS011;49949;43.060;25.624;2022-08-27T02:45:35;14.95;;;6.05;;
63801;SDS011;49949;43.060;25.624;2022-08-27T02:48:02;26.98;;;6.18;;
63801;SDS011;49949;43.060;25.624;2022-08-27T02:50:29;20.65;;;6.30;;
63801;SDS011;49949;43.060;25.624;2022-08-27T02:52:54;20.38;;;5.57;;
63801;SDS011;49949;43.060;25.624;2022-08-27T02:55:21;14.82;;;5.30;;
63801;SDS011;49949;43.060;25.624;2022-08-27T02:57:47;19.67;;;6.22;;
63801;SDS011;49949;43.060;25.624;2022-08-27T03:00:14;9.38;;;5.75;;
63801;SDS011;49949;43.060;25.624;2022-08-27T03:02:42;13.55;;;6.32;;
63801;SDS011;49949;43.060;25.624;2022-08-27T03:05:08;13.18;;;6.00;;
63801;SDS011;49949;43.060;25.624;2022-08-27T03:07:35;14.40;;;5.93;;
63801;SDS011;49949;43.060;25.624;2022-08-27T03:10:02;20.65;;;6.00;;
63801;SDS011;49949;43.060;25.624;2022-08-27T03:12:29;12.52;;;5.38;;
63801;SDS011;49949;43.060;25.624;2022-08-27T03:14:56;16.77;;;5.90;;
63801;SDS011;49949;43.060;25.624;2022-08-27T03:17:22;18.08;;;6.38;;
63801;SDS011;49949;43.060;25.624;2022-08-27T03:20:06;17.02;;;5.32;;
63801;SDS011;49949;43.060;25.624;2022-08-27T03:22:35;17.73;;;5.72;;
63801;SDS011;49949;43.060;25.624;2022-08-27T03:25:03;17.95;;;5.72;;
63801;SDS011;49949;43.060;25.624;2022-08-27T03:27:29;18.08;;;5.93;;
63801;SDS011;49949;43.060;25.624;2022-08-27T03:29:55;27.90;;;6.28;;
63801;SDS011;49949;43.060;25.624;2022-08-27T03:32:21;23.45;;;5.60;;
63801;SDS011;49949;43.060;25.624;2022-08-27T03:34:46;21.08;;;6.38;;
63801;SDS011;49949;43.060;25.624;2022-08-27T03:37:12;19.55;;;6.10;;
63801;SDS011;49949;43.060;25.624;2022-08-27T03:39:38;23.13;;;5.40;;
63801;SDS011;49949;43.060;25.624;2022-08-27T03:42:03;19.52;;;6.85;;
63801;SDS011;49949;43.060;25.624;2022-08-27T03:44:29;15.30;;;5.63;;
63801;SDS011;49949;43.060;25.624;2022-08-27T03:46:55;18.42;;;5.70;;
63801;SDS011;49949;43.060;25.624;2022-08-27T03:49:21;17.90;;;5.85;;
63801;SDS011;49949;43.060;25.624;2022-08-27T03:51:50;16.50;;;6.22;;
63801;SDS011;49949;43.060;25.624;2022-08-27T03:54:17;15.90;;;6.20;;
63801;SDS011;49949;43.060;25.624;2022-08-27T03:56:43;17.90;;;5.47;;
63801;SDS011;49949;43.060;25.624;2022-08-27T03:59:09;17.13;;;5.35;;
63801;SDS011;49949;43.060;25.624;2022-08-27T04:01:36;14.48;;;5.20;;
63801;SDS011;49949;43.060;25.624;2022-08-27T04:04:02;16.02;;;5.25;;
63801;SDS011;49949;43.060;25.624;2022-08-27T04:06:28;16.55;;;5.90;;
63801;SDS011;49949;43.060;25.624;2022-08-27T04:08:53;15.02;;;6.07;;
63801;SDS011;49949;43.060;25.624;2022-08-27T04:11:20;15.55;;;5.10;;
63801;SDS011;49949;43.060;25.624;2022-08-27T04:13:46;21.63;;;5.35;;
63801;SDS011;49949;43.060;25.624;2022-08-27T04:16:11;15.10;;;5.47;;
63801;SDS011;49949;43.060;25.624;2022-08-27T04:18:37;16.05;;;5.63;;
63801;SDS011;49949;43.060;25.624;2022-08-27T04:21:07;16.20;;;5.20;;
63801;SDS011;49949;43.060;25.624;2022-08-27T04:23:33;15.88;;;5.03;;
63801;SDS011;49949;43.060;25.624;2022-08-27T04:26:02;15.00;;;5.30;;
63801;SDS011;49949;43.060;25.624;2022-08-27T04:28:29;13.60;;;5.43;;
63801;SDS011;49949;43.060;25.624;2022-08-27T04:30:55;26.60;;;5.32;;
63801;SDS011;49949;43.060;25.624;2022-08-27T04:33:21;14.70;;;5.50;;
63801;SDS011;49949;43.060;25.624;2022-08-27T04:35:47;38.22;;;6.57;;
63801;SDS011;49949;43.060;25.624;2022-08-27T04:38:22;20.63;;;5.97;;
63801;SDS011;49949;43.060;25.624;2022-08-27T04:40:47;21.58;;;6.30;;
63801;SDS011;49949;43.060;25.624;2022-08-27T04:43:32;33.63;;;6.80;;
63801;SDS011;49949;43.060;25.624;2022-08-27T04:45:57;28.02;;;5.60;;
63801;SDS011;49949;43.060;25.624;2022-08-27T04:48:23;19.40;;;4.95;;
63801;SDS011;49949;43.060;25.624;2022-08-27T04:50:49;26.60;;;6.60;;
63801;SDS011;49949;43.060;25.624;2022-08-27T04:53:15;19.45;;;6.88;;
63801;SDS011;49949;43.060;25.624;2022-08-27T04:55:42;25.65;;;7.63;;
63801;SDS011;49949;43.060;25.624;2022-08-27T04:58:09;40.35;;;9.30;;
63801;SDS011;49949;43.060;25.624;2022-08-27T05:00:39;30.75;;;8.80;;
63801;SDS011;49949;43.060;25.624;2022-08-27T05:03:10;53.42;;;10.43;;
63801;SDS011;49949;43.060;25.624;2022-08-27T05:05:36;33.38;;;10.93;;
63801;SDS011;49949;43.060;25.624;2022-08-27T05:08:02;30.88;;;10.00;;
63801;SDS011;49949;43.060;25.624;2022-08-27T05:10:30;79.05;;;24.80;;
63801;SDS011;49949;43.060;25.624;2022-08-27T05:13:03;98.18;;;27.27;;
63801;SDS011;49949;43.060;25.624;2022-08-27T05:15:28;171.85;;;31.25;;
63801;SDS011;49949;43.060;25.624;2022-08-27T05:17:55;66.47;;;19.70;;
63801;SDS011;49949;43.060;25.624;2022-08-27T05:20:25;102.88;;;29.23;;
63801;SDS011;49949;43.060;25.624;2022-08-27T05:22:51;79.18;;;28.25;;
63801;SDS011;49949;43.060;25.624;2022-08-27T05:25:17;92.60;;;27.45;;
63801;SDS011;49949;43.060;25.624;2022-08-27T05:27:43;112.13;;;24.17;;
63801;SDS011;49949;43.060;25.624;2022-08-27T05:30:09;74.03;;;22.25;;
63801;SDS011;49949;43.060;25.624;2022-08-27T05:32:36;66.18;;;16.88;;
63801;SDS011;49949;43.060;25.624;2022-08-27T05:35:01;60.42;;;15.52;;
63801;SDS011;49949;43.060;25.624;2022-08-27T05:37:27;157.73;;;19.48;;
63801;SDS011;49949;43.060;25.624;2022-08-27T05:39:53;60.70;;;14.60;;
63801;SDS011;49949;43.060;25.624;2022-08-27T05:42:19;60.47;;;15.90;;
63801;SDS011;49949;43.060;25.624;2022-08-27T05:44:44;61.15;;;16.73;;
63801;SDS011;49949;43.060;25.624;2022-08-27T05:47:10;75.05;;;17.45;;
63801;SDS011;49949;43.060;25.624;2022-08-27T05:49:36;61.97;;;16.98;;
63801;SDS011;49949;43.060;25.624;2022-08-27T05:52:01;73.25;;;16.77;;
63801;SDS011;49949;43.060;25.624;2022-08-27T05:54:27;66.15;;;15.77;;
63801;SDS011;49949;43.060;25.624;2022-08-27T05:56:53;42.65;;;12.05;;
63801;SDS011;49949;43.060;25.624;2022-08-27T05:59:19;44.97;;;12.85;;
63801;SDS011;49949;43.060;25.624;2022-08-27T06:02:03;54.88;;;11.10;;
63801;SDS011;49949;43.060;25.624;2022-08-27T06:04:30;45.95;;;11.35;;
63801;SDS011;49949;43.060;25.624;2022-08-27T06:06:55;34.40;;;9.68;;
63801;SDS011;49949;43.060;25.624;2022-08-27T06:09:22;33.00;;;10.48;;
63801;SDS011;49949;43.060;25.624;2022-08-27T06:11:53;38.42;;;9.35;;
63801;SDS011;49949;43.060;25.624;2022-08-27T06:14:21;30.05;;;7.63;;
63801;SDS011;49949;43.060;25.624;2022-08-27T06:16:47;34.75;;;9.27;;
63801;SDS011;49949;43.060;25.624;2022-08-27T06:19:13;28.33;;;8.35;;
63801;SDS011;49949;43.060;25.624;2022-08-27T06:21:39;36.75;;;8.95;;
63801;SDS011;49949;43.060;25.624;2022-08-27T06:24:06;27.05;;;8.52;;
63801;SDS011;49949;43.060;25.624;2022-08-27T06:26:33;36.63;;;8.57;;
63801;SDS011;49949;43.060;25.624;2022-08-27T06:29:02;49.05;;;8.45;;
63801;SDS011;49949;43.060;25.624;2022-08-27T06:31:29;43.10;;;7.97;;
63801;SDS011;49949;43.060;25.624;2022-08-27T06:33:57;26.27;;;8.18;;
63801;SDS011;49949;43.060;25.624;2022-08-27T06:36:24;40.63;;;7.88;;
63801;SDS011;49949;43.060;25.624;2022-08-27T06:38:51;59.13;;;9.07;;
63801;SDS011;49949;43.060;25.624;2022-08-27T06:41:18;62.63;;;12.30;;
63801;SDS011;49949;43.060;25.624;2022-08-27T06:43:46;52.20;;;13.02;;
63801;SDS011;49949;43.060;25.624;2022-08-27T06:46:14;75.05;;;17.10;;
63801;SDS011;49949;43.060;25.624;2022-08-27T06:48:41;1009.30;;;70.82;;
63801;SDS011;49949;43.060;25.624;2022-08-27T06:51:15;55.97;;;11.30;;
63801;SDS011;49949;43.060;25.624;2022-08-27T06:53:43;177.18;;;12.95;;
63801;SDS011;49949;43.060;25.624;2022-08-27T06:56:11;35.42;;;5.95;;
63801;SDS011;49949;43.060;25.624;2022-08-27T06:58:38;53.75;;;9.88;;
63801;SDS011;49949;43.060;25.624;2022-08-27T07:01:10;37.67;;;8.75;;
63801;SDS011;49949;43.060;25.624;2022-08-27T07:03:38;33.33;;;7.10;;
63801;SDS011;49949;43.060;25.624;2022-08-27T07:06:04;18.67;;;4.95;;
63801;SDS011;49949;43.060;25.624;2022-08-27T07:08:30;25.38;;;7.20;;
63801;SDS011;49949;43.060;25.624;2022-08-27T07:10:56;31.73;;;4.18;;
63801;SDS011;49949;43.060;25.624;2022-08-27T07:13:22;12.52;;;3.17;;
63801;SDS011;49949;43.060;25.624;2022-08-27T07:15:48;18.50;;;3.67;;
63801;SDS011;49949;43.060;25.624;2022-08-27T07:18:13;16.60;;;2.95;;
63801;SDS011;49949;43.060;25.624;2022-08-27T07:20:40;20.17;;;3.65;;
63801;SDS011;49949;43.060;25.624;2022-08-27T07:23:06;23.70;;;3.47;;
63801;SDS011;49949;43.060;25.624;2022-08-27T07:25:31;17.85;;;4.13;;
63801;SDS011;49949;43.060;25.624;2022-08-27T07:27:57;38.05;;;4.38;;
63801;SDS011;49949;43.060;25.624;2022-08-27T07:30:24;32.47;;;3.63;;
63801;SDS011;49949;43.060;25.624;2022-08-27T07:32:52;23.52;;;3.85;;
63801;SDS011;49949;43.060;25.624;2022-08-27T07:35:18;18.58;;;2.80;;
63801;SDS011;49949;43.060;25.624;2022-08-27T07:37:43;17.17;;;3.80;;
63801;SDS011;49949;43.060;25.624;2022-08-27T07:40:11;15.25;;;3.10;;
63801;SDS011;49949;43.060;25.624;2022-08-27T07:42:39;26.25;;;4.30;;
63801;SDS011;49949;43.060;25.624;2022-08-27T07:45:25;24.35;;;4.10;;
63801;SDS011;49949;43.060;25.624;2022-08-27T07:47:52;73.28;;;5.65;;
63801;SDS011;49949;43.060;25.624;2022-08-27T07:50:18;11.93;;;2.80;;
63801;SDS011;49949;43.060;25.624;2022-08-27T07:52:44;123.15;;;8.35;;
63801;SDS011;49949;43.060;25.624;2022-08-27T07:55:10;29.10;;;3.60;;
63801;SDS011;49949;43.060;25.624;2022-08-27T07:57:37;51.25;;;4.85;;
63801;SDS011;49949;43.060;25.624;2022-08-27T08:00:04;35.42;;;3.97;;
63801;SDS011;49949;43.060;25.624;2022-08-27T08:02:33;18.95;;;3.20;;
63801;SDS011;49949;43.060;25.624;2022-08-27T08:04:59;10.82;;;3.53;;
63801;SDS011;49949;43.060;25.624;2022-08-27T08:07:25;28.48;;;3.90;;
63801;SDS011;49949;43.060;25.624;2022-08-27T08:09:50;29.65;;;4.38;;
63801;SDS011;49949;43.060;25.624;2022-08-27T08:12:16;34.97;;;5.13;;
63801;SDS011;49949;43.060;25.624;2022-08-27T08:14:42;27.75;;;6.03;;
63801;SDS011;49949;43.060;25.624;2022-08-27T08:17:07;26.60;;;4.82;;
63801;SDS011;49949;43.060;25.624;2022-08-27T08:19:33;40.03;;;4.57;;
63801;SDS011;49949;43.060;25.624;2022-08-27T08:21:59;31.55;;;4.35;;
63801;SDS011;49949;43.060;25.624;2022-08-27T08:24:25;19.65;;;4.28;;
63801;SDS011;49949;43.060;25.624;2022-08-27T08:26:51;21.20;;;3.72;;
63801;SDS011;49949;43.060;25.624;2022-08-27T08:29:17;23.02;;;3.70;;
63801;SDS011;49949;43.060;25.624;2022-08-27T08:31:42;25.00;;;4.93;;
63801;SDS011;49949;43.060;25.624;2022-08-27T08:34:08;28.23;;;4.97;;
63801;SDS011;49949;43.060;25.624;2022-08-27T08:36:34;41.95;;;5.03;;
63801;SDS011;49949;43.060;25.624;2022-08-27T08:39:00;28.88;;;4.90;;
63801;SDS011;49949;43.060;25.624;2022-08-27T08:44:06;31.95;;;4.97;;
63801;SDS011;49949;43.060;25.624;2022-08-27T08:46:57;26.42;;;4.10;;
63801;SDS011;49949;43.060;25.624;2022-08-27T08:57:50;24.92;;;4.28;;
63801;SDS011;49949;43.060;25.624;2022-08-27T09:00:21;47.75;;;4.78;;
63801;SDS011;49949;43.060;25.624;2022-08-27T09:02:49;16.33;;;3.92;;
63801;SDS011;49949;43.060;25.624;2022-08-27T09:05:18;31.98;;;4.43;;
63801;SDS011;49949;43.060;25.624;2022-08-27T09:08:05;32.75;;;4.43;;
63801;SDS011;49949;43.060;25.624;2022-08-27T09:10:58;27.70;;;4.57;;
63801;SDS011;49949;43.060;25.624;2022-08-27T09:16:04;32.13;;;4.35;;
63801;SDS011;49949;43.060;25.624;2022-08-27T09:18:31;35.78;;;5.13;;
63801;SDS011;49949;43.060;25.624;2022-08-27T09:21:18;44.25;;;5.80;;
63801;SDS011;49949;43.060;25.624;2022-08-27T09:24:18;37.85;;;5.38;;
63801;SDS011;49949;43.060;25.624;2022-08-27T09:26:46;36.05;;;5.00;;
63801;SDS011;49949;43.060;25.624;2022-08-27T09:29:14;32.47;;;3.70;;
63801;SDS011;49949;43.060;25.624;2022-08-27T09:31:44;27.52;;;4.03;;
63801;SDS011;49949;43.060;25.624;2022-08-27T09:34:10;45.22;;;5.47;;
63801;SDS011;49949;43.060;25.624;2022-08-27T09:39:42;29.30;;;3.58;;
63801;SDS011;49949;43.060;25.624;2022-08-27T09:44:54;14.85;;;3.40;;
63801;SDS011;49949;43.060;25.624;2022-08-27T09:47:21;34.28;;;4.07;;
63801;SDS011;49949;43.060;25.624;2022-08-27T09:49:47;149.38;;;9.23;;
63801;SDS011;49949;43.060;25.624;2022-08-27T09:52:33;30.50;;;4.03;;
63801;SDS011;49949;43.060;25.624;2022-08-27T09:55:01;37.83;;;4.40;;
63801;SDS011;49949;43.060;25.624;2022-08-27T09:57:33;36.70;;;4.60;;
63801;SDS011;49949;43.060;25.624;2022-08-27T10:00:05;22.80;;;4.28;;
63801;SDS011;49949;43.060;25.624;2022-08-27T10:02:47;41.67;;;4.85;;
63801;SDS011;49949;43.060;25.624;2022-08-27T10:05:27;29.25;;;3.90;;
63801;SDS011;49949;43.060;25.624;2022-08-27T10:08:00;34.10;;;4.88;;
63801;SDS011;49949;43.060;25.624;2022-08-27T10:21:25;36.20;;;5.13;;
63801;SDS011;49949;43.060;25.624;2022-08-27T10:29:47;41.15;;;4.90;;
63801;SDS011;49949;43.060;25.624;2022-08-27T10:35:11;30.67;;;5.07;;
63801;SDS011;49949;43.060;25.624;2022-08-27T10:38:15;18.92;;;3.47;;
63801;SDS011;49949;43.060;25.624;2022-08-27T10:49:01;39.13;;;4.25;;
63801;SDS011;49949;43.060;25.624;2022-08-27T10:51:52;34.42;;;4.65;;
63801;SDS011;49949;43.060;25.624;2022-08-27T10:54:50;24.10;;;4.00;;
63801;SDS011;49949;43.060;25.624;2022-08-27T11:00:21;47.63;;;5.03;;
63801;SDS011;49949;43.060;25.624;2022-08-27T11:15:38;32.17;;;4.25;;
63801;SDS011;49949;43.060;25.624;2022-08-27T11:18:17;30.90;;;4.80;;
63801;SDS011;49949;43.060;25.624;2022-08-27T11:23:45;39.20;;;4.28;;
63801;SDS011;49949;43.060;25.624;2022-08-27T11:26:17;31.70;;;4.30;;
63801;SDS011;49949;43.060;25.624;2022-08-27T11:28:50;33.85;;;4.15;;
63801;SDS011;49949;43.060;25.624;2022-08-27T11:38:57;46.40;;;5.32;;
63801;SDS011;49949;43.060;25.624;2022-08-27T11:44:13;43.83;;;5.05;;
63801;SDS011;49949;43.060;25.624;2022-08-27T11:46:44;43.05;;;4.55;;
63801;SDS011;49949;43.060;25.624;2022-08-27T11:49:34;41.22;;;5.82;;
63801;SDS011;49949;43.060;25.624;2022-08-27T11:52:05;39.33;;;5.20;;
63801;SDS011;49949;43.060;25.624;2022-08-27T11:54:46;40.70;;;5.05;;
63801;SDS011;49949;43.060;25.624;2022-08-27T11:57:13;41.78;;;6.55;;
63801;SDS011;49949;43.060;25.624;2022-08-27T11:59:52;53.85;;;5.65;;
63801;SDS011;49949;43.060;25.624;2022-08-27T12:02:25;36.53;;;5.50;;
63801;SDS011;49949;43.060;25.624;2022-08-27T12:05:04;45.88;;;4.93;;
63801;SDS011;49949;43.060;25.624;2022-08-27T12:07:33;36.33;;;4.95;;
63801;SDS011;49949;43.060;25.624;2022-08-27T12:10:08;44.10;;;5.50;;
63801;SDS011;49949;43.060;25.624;2022-08-27T12:18:41;49.92;;;5.07;;
63801;SDS011;49949;43.060;25.624;2022-08-27T12:27:00;49.78;;;5.10;;
63801;SDS011;49949;43.060;25.624;2022-08-27T12:29:58;53.95;;;5.32;;
63801;SDS011;49949;43.060;25.624;2022-08-27T12:32:45;41.15;;;5.43;;
63801;SDS011;49949;43.060;25.624;2022-08-27T12:35:19;45.67;;;5.13;;
63801;SDS011;49949;43.060;25.624;2022-08-27T12:37:52;39.03;;;5.43;;
63801;SDS011;49949;43.060;25.624;2022-08-27T12:40:26;56.30;;;5.68;;
63801;SDS011;49949;43.060;25.624;2022-08-27T12:43:11;43.90;;;6.63;;
63801;SDS011;49949;43.060;25.624;2022-08-27T12:46:13;50.65;;;5.80;;
63801;SDS011;49949;43.060;25.624;2022-08-27T12:48:40;45.17;;;4.80;;
63801;SDS011;49949;43.060;25.624;2022-08-27T12:51:28;46.55;;;5.53;;
63801;SDS011;49949;43.060;25.624;2022-08-27T13:05:12;51.70;;;5.43;;
63801;SDS011;49949;43.060;25.624;2022-08-27T13:07:43;55.90;;;5.50;;
63801;SDS011;49949;43.060;25.624;2022-08-27T13:10:17;51.60;;;5.70;;
63801;SDS011;49949;43.060;25.624;2022-08-27T13:13:04;60.25;;;6.65;;
63801;SDS011;49949;43.060;25.624;2022-08-27T13:18:05;42.55;;;5.55;;
63801;SDS011;49949;43.060;25.624;2022-08-27T13:20:33;43.38;;;5.78;;
63801;SDS011;49949;43.060;25.624;2022-08-27T13:23:01;57.20;;;5.60;;
63801;SDS011;49949;43.060;25.624;2022-08-27T13:25:31;52.53;;;5.97;;
63801;SDS011;49949;43.060;25.624;2022-08-27T13:28:11;49.53;;;5.60;;
63801;SDS011;49949;43.060;25.624;2022-08-27T13:30:40;54.23;;;5.10;;
63801;SDS011;49949;43.060;25.624;2022-08-27T13:33:16;53.05;;;5.13;;
63801;SDS011;49949;43.060;25.624;2022-08-27T13:35:47;95.45;;;7.78;;
63801;SDS011;49949;43.060;25.624;2022-08-27T13:38:13;71.40;;;6.20;;
63801;SDS011;49949;43.060;25.624;2022-08-27T13:40:50;54.60;;;5.60;;
63801;SDS011;49949;43.060;25.624;2022-08-27T13:43:44;43.15;;;5.63;;
63801;SDS011;49949;43.060;25.624;2022-08-27T13:46:19;63.85;;;4.90;;
63801;SDS011;49949;43.060;25.624;2022-08-27T13:48:50;50.35;;;6.47;;
63801;SDS011;49949;43.060;25.624;2022-08-27T13:53:58;49.80;;;5.60;;
63801;SDS011;49949;43.060;25.624;2022-08-27T13:59:29;44.33;;;5.22;;
63801;SDS011;49949;43.060;25.624;2022-08-27T14:04:35;55.58;;;5.85;;
63801;SDS011;49949;43.060;25.624;2022-08-27T14:07:25;40.00;;;5.70;;
63801;SDS011;49949;43.060;25.624;2022-08-27T14:10:00;43.95;;;5.57;;
63801;SDS011;49949;43.060;25.624;2022-08-27T14:14:58;34.72;;;4.82;;
63801;SDS011;49949;43.060;25.624;2022-08-27T14:17:43;37.83;;;4.72;;
63801;SDS011;49949;43.060;25.624;2022-08-27T14:20:10;46.00;;;5.28;;
63801;SDS011;49949;43.060;25.624;2022-08-27T14:22:37;40.65;;;4.68;;
63801;SDS011;49949;43.060;25.624;2022-08-27T14:25:04;55.58;;;5.35;;
63801;SDS011;49949;43.060;25.624;2022-08-27T14:27:30;40.28;;;4.55;;
63801;SDS011;49949;43.060;25.624;2022-08-27T14:29:56;40.33;;;5.15;;
63801;SDS011;49949;43.060;25.624;2022-08-27T14:32:22;42.40;;;5.05;;
63801;SDS011;49949;43.060;25.624;2022-08-27T14:34:48;39.72;;;5.75;;
63801;SDS011;49949;43.060;25.624;2022-08-27T14:37:14;41.38;;;5.35;;
63801;SDS011;49949;43.060;25.624;2022-08-27T14:39:40;42.15;;;5.82;;
63801;SDS011;49949;43.060;25.624;2022-08-27T14:42:07;42.65;;;5.03;;
63801;SDS011;49949;43.060;25.624;2022-08-27T14:44:34;42.47;;;4.80;;
63801;SDS011;49949;43.060;25.624;2022-08-27T14:47:01;38.15;;;5.25;;
63801;SDS011;49949;43.060;25.624;2022-08-27T14:49:32;50.25;;;6.05;;
63801;SDS011;49949;43.060;25.624;2022-08-27T14:52:01;45.92;;;5.28;;
63801;SDS011;49949;43.060;25.624;2022-08-27T14:54:29;60.88;;;7.30;;
63801;SDS011;49949;43.060;25.624;2022-08-27T14:56:55;47.15;;;5.07;;
63801;SDS011;49949;43.060;25.624;2022-08-27T14:59:23;49.35;;;6.35;;
63801;SDS011;49949;43.060;25.624;2022-08-27T15:01:49;38.47;;;4.90;;
63801;SDS011;49949;43.060;25.624;2022-08-27T15:04:16;33.03;;;4.43;;
63801;SDS011;49949;43.060;25.624;2022-08-27T15:06:43;33.35;;;5.05;;
63801;SDS011;49949;43.060;25.624;2022-08-27T15:09:09;48.70;;;5.20;;
63801;SDS011;49949;43.060;25.624;2022-08-27T15:11:34;35.20;;;4.40;;
63801;SDS011;49949;43.060;25.624;2022-08-27T15:14:03;45.15;;;5.53;;
63801;SDS011;49949;43.060;25.624;2022-08-27T15:16:34;42.92;;;5.35;;
63801;SDS011;49949;43.060;25.624;2022-08-27T15:19:03;35.35;;;4.70;;
63801;SDS011;49949;43.060;25.624;2022-08-27T15:21:31;45.45;;;5.32;;
63801;SDS011;49949;43.060;25.624;2022-08-27T15:23:59;43.38;;;4.75;;
63801;SDS011;49949;43.060;25.624;2022-08-27T15:26:27;42.10;;;5.53;;
63801;SDS011;49949;43.060;25.624;2022-08-27T15:28:53;45.10;;;5.00;;
63801;SDS011;49949;43.060;25.624;2022-08-27T15:31:19;42.85;;;5.20;;
63801;SDS011;49949;43.060;25.624;2022-08-27T15:33:45;55.08;;;6.65;;
63801;SDS011;49949;43.060;25.624;2022-08-27T15:36:11;33.63;;;4.90;;
63801;SDS011;49949;43.060;25.624;2022-08-27T15:38:38;52.47;;;5.93;;
63801;SDS011;49949;43.060;25.624;2022-08-27T15:41:04;41.92;;;6.00;;
63801;SDS011;49949;43.060;25.624;2022-08-27T15:43:30;62.60;;;5.30;;
63801;SDS011;49949;43.060;25.624;2022-08-27T15:45:56;46.05;;;5.97;;
63801;SDS011;49949;43.060;25.624;2022-08-27T15:48:22;41.13;;;5.82;;
63801;SDS011;49949;43.060;25.624;2022-08-27T15:50:49;57.13;;;7.03;;
63801;SDS011;49949;43.060;25.624;2022-08-27T15:53:15;43.00;;;5.60;;
63801;SDS011;49949;43.060;25.624;2022-08-27T15:55:45;37.85;;;5.57;;
63801;SDS011;49949;43.060;25.624;2022-08-27T15:58:11;37.67;;;5.82;;
63801;SDS011;49949;43.060;25.624;2022-08-27T16:00:37;45.95;;;5.53;;
63801;SDS011;49949;43.060;25.624;2022-08-27T16:03:04;48.67;;;5.13;;
63801;SDS011;49949;43.060;25.624;2022-08-27T16:05:34;54.55;;;6.13;;
63801;SDS011;49949;43.060;25.624;2022-08-27T16:08:01;48.45;;;5.03;;
63801;SDS011;49949;43.060;25.624;2022-08-27T16:10:27;53.80;;;5.72;;
63801;SDS011;49949;43.060;25.624;2022-08-27T16:12:53;40.10;;;5.78;;
63801;SDS011;49949;43.060;25.624;2022-08-27T16:15:18;58.63;;;6.88;;
63801;SDS011;49949;43.060;25.624;2022-08-27T16:17:44;54.50;;;6.78;;
63801;SDS011;49949;43.060;25.624;2022-08-27T16:20:12;51.65;;;5.35;;
63801;SDS011;49949;43.060;25.624;2022-08-27T16:22:39;39.03;;;6.70;;
63801;SDS011;49949;43.060;25.624;2022-08-27T16:25:06;36.78;;;4.90;;
63801;SDS011;49949;43.060;25.624;2022-08-27T16:27:32;40.83;;;5.45;;